createdAt,value
2022-11-04T00:01:28.049Z,68.15
2022-11-04T00:04:31.494Z,68.17
2022-11-04T00:07:52.816Z,68.16
2022-11-04T00:11:17.890Z,68.14
2022-11-04T00:14:21.600Z,68.16
2022-11-04T00:17:24.581Z,68.15
2022-11-04T00:20:46.118Z,68.17
2022-11-04T00:24:07.664Z,68.19
2022-11-04T00:27:38.096Z,68.21
2022-11-04T00:30:40.997Z,68.20
2022-11-04T00:33:43.855Z,68.21
2022-11-04T00:36:46.769Z,68.23
2022-11-04T00:39:49.704Z,68.24
2022-11-04T00:42:52.579Z,68.23
2022-11-04T00:45:55.514Z,68.24
2022-11-04T00:48:58.968Z,68.28
2022-11-04T00:52:01.931Z,68.26
2022-11-04T00:55:05.281Z,68.27
2022-11-04T00:58:08.163Z,68.26
2022-11-04T01:01:13.580Z,68.26
2022-11-04T01:04:16.755Z,68.24
2022-11-04T01:07:19.715Z,68.28
2022-11-04T01:10:22.787Z,68.32
2022-11-04T01:13:25.663Z,68.29
2022-11-04T01:16:29.198Z,68.32
2022-11-04T01:19:32.478Z,68.31
2022-11-04T01:22:35.396Z,68.32
2022-11-04T01:25:41.549Z,68.31
2022-11-04T01:28:44.997Z,68.32
2022-11-04T01:31:47.873Z,68.37
2022-11-04T01:34:50.822Z,68.33
2022-11-04T01:37:53.734Z,68.34
2022-11-04T01:40:56.692Z,68.40
2022-11-04T01:44:00.870Z,68.41
2022-11-04T01:47:04.763Z,68.36
2022-11-04T01:50:10.665Z,68.34
2022-11-04T01:53:18.894Z,68.36
2022-11-04T01:56:23.184Z,68.38
2022-11-04T01:59:30.337Z,68.29
2022-11-04T02:02:33.741Z,68.27
2022-11-04T02:05:37.117Z,68.34
2022-11-04T02:08:41.145Z,68.23
2022-11-04T02:12:03.047Z,68.18
2022-11-04T02:15:06.380Z,68.10
2022-11-04T02:18:29.834Z,68.10
2022-11-04T02:22:23.872Z,68.07
2022-11-04T02:25:49.940Z,67.99
2022-11-04T02:29:14.472Z,67.95
2022-11-04T02:32:59.250Z,67.93
2022-11-04T02:36:24.727Z,67.84
2022-11-04T02:39:36.282Z,67.86
2022-11-04T02:42:55.160Z,67.83
2022-11-04T02:46:05.274Z,67.79
2022-11-04T02:49:15.616Z,67.81
2022-11-04T02:52:27.977Z,67.81
2022-11-04T02:55:40.795Z,67.78
2022-11-04T02:58:53.817Z,67.97
2022-11-04T03:01:59.247Z,67.87
2022-11-04T03:05:06.100Z,67.96
2022-11-04T03:08:14.758Z,67.93
2022-11-04T03:11:21.338Z,67.96
2022-11-04T03:14:29.591Z,68.08
2022-11-04T03:17:44.464Z,68.16
2022-11-04T03:20:49.035Z,68.17
2022-11-04T03:23:52.079Z,68.35
2022-11-04T03:27:23.162Z,68.41
2022-11-04T03:30:26.171Z,68.22
2022-11-04T03:33:43.140Z,68.16
2022-11-04T03:36:46.160Z,68.09
2022-11-04T03:39:49.233Z,68.03
2022-11-04T03:43:09.702Z,67.93
2022-11-04T03:46:13.106Z,67.80
2022-11-04T03:49:16.688Z,67.80
2022-11-04T03:52:20.268Z,67.74
2022-11-04T03:55:41.730Z,67.71
2022-11-04T03:59:04.671Z,67.68
2022-11-04T04:02:27.323Z,67.63
2022-11-04T04:05:41.671Z,67.61
2022-11-04T04:08:51.992Z,67.54
2022-11-04T04:12:00.897Z,67.50
2022-11-04T04:15:18.651Z,67.51
2022-11-04T04:18:39.021Z,67.50
2022-11-04T04:21:59.044Z,67.51
2022-11-04T04:25:25.390Z,67.52
2022-11-04T04:28:28.407Z,67.59
2022-11-04T04:31:52.548Z,67.53
2022-11-04T04:35:14.287Z,67.62
2022-11-04T04:38:40.845Z,67.61
2022-11-04T04:42:02.573Z,67.59
2022-11-04T04:45:06.833Z,67.57
2022-11-04T04:48:13.755Z,67.59
2022-11-04T04:51:16.852Z,67.59
2022-11-04T04:54:19.765Z,67.60
2022-11-04T04:57:22.749Z,67.60
2022-11-04T05:00:25.861Z,67.57
2022-11-04T05:03:28.740Z,67.60
2022-11-04T05:06:31.619Z,67.61
2022-11-04T05:09:34.532Z,67.59
2022-11-04T05:12:57.534Z,67.62
2022-11-04T05:16:09.539Z,67.66
2022-11-04T05:19:12.450Z,67.64
2022-11-04T05:22:15.800Z,67.64
2022-11-04T05:25:18.743Z,67.65
2022-11-04T05:28:21.658Z,67.66
2022-11-04T05:31:24.615Z,67.65
2022-11-04T05:34:27.547Z,67.65
2022-11-04T05:37:30.472Z,67.64
2022-11-04T05:40:33.536Z,67.63
2022-11-04T05:43:36.856Z,67.66
2022-11-04T05:46:39.818Z,67.63
2022-11-04T05:49:43.392Z,67.59
2022-11-04T05:52:46.334Z,67.58
2022-11-04T05:55:49.388Z,67.59
2022-11-04T05:58:52.403Z,67.59
2022-11-04T06:01:55.600Z,67.62
2022-11-04T06:04:59.226Z,67.56
2022-11-04T06:08:02.169Z,67.57
2022-11-04T06:11:05.507Z,67.57
2022-11-04T06:14:08.571Z,67.58
2022-11-04T06:17:20.727Z,67.60
2022-11-04T06:20:23.677Z,67.57
2022-11-04T06:23:26.545Z,67.58
2022-11-04T06:26:31.263Z,67.51
2022-11-04T06:29:34.236Z,67.51
2022-11-04T06:32:37.310Z,67.48
2022-11-04T06:35:40.223Z,67.53
2022-11-04T06:38:43.675Z,67.58
2022-11-04T06:41:50.489Z,67.46
2022-11-04T06:44:54.731Z,67.39
2022-11-04T06:47:58.074Z,67.35
2022-11-04T06:51:01.686Z,67.34
2022-11-04T06:54:04.682Z,67.34
2022-11-04T06:57:11.054Z,67.31
2022-11-04T07:00:14.432Z,67.19
2022-11-04T07:03:17.364Z,67.24
2022-11-04T07:06:21.268Z,67.14
2022-11-04T07:09:24.281Z,67.08
2022-11-04T07:12:27.196Z,67.07
2022-11-04T07:15:30.211Z,67.09
2022-11-04T07:18:33.258Z,67.03
2022-11-04T07:21:36.372Z,66.95
2022-11-04T07:24:39.334Z,66.93
2022-11-04T07:27:42.371Z,66.90
2022-11-04T07:30:45.314Z,66.93
2022-11-04T07:33:50.286Z,66.92
2022-11-04T07:36:53.344Z,66.93
2022-11-04T07:39:56.302Z,66.91
2022-11-04T07:42:59.248Z,66.97
2022-11-04T07:46:14.714Z,67.04
2022-11-04T07:49:17.617Z,66.99
2022-11-04T07:52:20.552Z,66.99
2022-11-04T07:55:23.455Z,67.05
2022-11-04T07:58:26.725Z,67.08
2022-11-04T08:01:29.680Z,67.25
2022-11-04T08:04:33.214Z,67.20
2022-11-04T08:07:36.503Z,67.30
2022-11-04T08:10:40.149Z,67.22
2022-11-04T08:13:43.687Z,67.19
2022-11-04T08:16:46.932Z,67.19
2022-11-04T08:19:49.865Z,67.17
2022-11-04T08:22:53.171Z,67.20
2022-11-04T08:25:57.597Z,67.18
2022-11-04T08:29:02.513Z,67.28
2022-11-04T08:32:07.398Z,67.37
2022-11-04T08:35:10.439Z,67.42
2022-11-04T08:38:13.486Z,67.44
2022-11-04T08:41:20.025Z,67.50
2022-11-04T08:44:23.962Z,67.44
2022-11-04T08:47:27.134Z,67.46
2022-11-04T08:50:30.856Z,67.47
2022-11-04T08:53:34.276Z,67.56
2022-11-04T08:56:39.331Z,67.53
2022-11-04T08:59:42.285Z,67.43
2022-11-04T09:02:45.149Z,67.54
2022-11-04T09:05:49.243Z,67.57
2022-11-04T09:08:55.575Z,67.56
2022-11-04T09:11:58.567Z,67.49
2022-11-04T09:15:02.453Z,67.58
2022-11-04T09:18:05.370Z,67.64
2022-11-04T09:21:10.777Z,67.64
2022-11-04T09:24:14.179Z,67.65
2022-11-04T09:27:17.466Z,67.63
2022-11-04T09:30:22.497Z,67.58
2022-11-04T09:33:25.481Z,67.56
2022-11-04T09:36:29.293Z,67.77
2022-11-04T09:39:32.440Z,67.69
2022-11-04T09:42:45.218Z,67.61
2022-11-04T09:45:48.253Z,67.57
2022-11-04T09:48:55.360Z,67.56
2022-11-04T09:51:59.512Z,67.63
2022-11-04T09:55:32.758Z,67.64
2022-11-04T09:58:39.126Z,67.61
2022-11-04T10:01:42.172Z,67.57
2022-11-04T10:05:18.324Z,67.58
2022-11-04T10:08:56.828Z,67.53
2022-11-04T10:12:08.837Z,67.50
2022-11-04T10:15:36.852Z,67.49
2022-11-04T10:19:15.154Z,67.55
2022-11-04T10:22:52.695Z,67.47
2022-11-04T10:26:13.862Z,67.36
2022-11-04T10:29:52.385Z,67.33
2022-11-04T10:33:30.013Z,67.31
2022-11-04T10:36:36.079Z,67.50
2022-11-04T10:39:47.199Z,67.38
2022-11-04T10:42:51.718Z,67.29
2022-11-04T10:46:24.403Z,67.32
2022-11-04T10:49:54.813Z,67.28
2022-11-04T10:53:20.100Z,67.21
2022-11-04T10:56:39.726Z,67.20
2022-11-04T11:00:01.775Z,67.16
2022-11-04T11:03:24.042Z,67.33
2022-11-04T11:06:27.048Z,67.27
2022-11-04T11:09:33.742Z,67.16
2022-11-04T11:12:51.481Z,67.01
2022-11-04T11:16:17.511Z,66.92
2022-11-04T11:19:25.008Z,67.09
2022-11-04T11:22:32.672Z,67.09
2022-11-04T11:25:50.625Z,67.02
2022-11-04T11:29:07.375Z,66.82
2022-11-04T11:32:33.225Z,66.78
2022-11-04T11:35:51.528Z,66.75
2022-11-04T11:39:05.869Z,66.92
2022-11-04T11:42:16.287Z,67.13
2022-11-04T11:45:23.501Z,67.00
2022-11-04T11:49:03.076Z,67.25
2022-11-04T11:52:20.463Z,67.10
2022-11-04T11:55:37.234Z,67.14
2022-11-04T12:02:34.643Z,67.13
2022-11-04T12:09:34.046Z,67.30
2022-11-04T12:13:05.121Z,67.16
2022-11-04T12:16:10.969Z,67.02
2022-11-04T12:19:46.641Z,67.47
2022-11-04T12:22:59.828Z,67.66
2022-11-04T12:26:21.518Z,67.65
2022-11-04T12:29:41.072Z,67.15
2022-11-04T12:33:19.615Z,67.07
2022-11-04T12:36:44.077Z,67.07
2022-11-04T12:40:08.692Z,67.06
2022-11-04T12:43:36.406Z,67.09
2022-11-04T12:47:04.592Z,67.26
2022-11-04T12:50:31.728Z,67.32
2022-11-04T12:53:42.819Z,67.40
2022-11-04T12:56:58.219Z,67.39
2022-11-04T13:00:06.385Z,67.44
2022-11-04T13:03:16.364Z,67.66
2022-11-04T13:06:27.390Z,67.87
2022-11-04T13:09:41.568Z,68.06
2022-11-04T13:12:50.222Z,68.21
2022-11-04T13:15:58.260Z,68.34
2022-11-04T13:19:02.017Z,68.38
2022-11-04T13:22:14.550Z,68.51
2022-11-04T13:25:23.945Z,68.62
2022-11-04T13:28:27.056Z,68.88
2022-11-04T13:31:54.308Z,68.97
2022-11-04T13:35:26.057Z,69.13
2022-11-04T13:38:36.933Z,69.02
2022-11-04T13:42:12.180Z,69.29
2022-11-04T13:45:18.847Z,69.48
2022-11-04T13:48:32.830Z,69.63
2022-11-04T13:51:39.427Z,69.92
2022-11-04T13:54:53.801Z,70.25
2022-11-04T13:58:01.666Z,70.14
2022-11-04T14:01:29.353Z,70.20
2022-11-04T14:04:32.499Z,70.31
2022-11-04T14:08:03.393Z,70.43
2022-11-04T14:11:10.316Z,70.52
2022-11-04T14:14:19.972Z,70.64
2022-11-04T14:17:35.425Z,70.56
2022-11-04T14:21:07.213Z,70.65
2022-11-04T14:24:16.271Z,70.92
2022-11-04T14:27:28.047Z,70.87
2022-11-04T14:30:44.430Z,70.87
2022-11-04T14:33:56.243Z,71.13
2022-11-04T14:37:01.975Z,71.30
2022-11-04T14:40:08.064Z,71.50
2022-11-04T14:43:38.939Z,71.78
2022-11-04T14:46:45.090Z,72.12
2022-11-04T14:49:52.844Z,72.21
2022-11-04T14:53:03.858Z,72.19
2022-11-04T14:56:23.268Z,72.16
2022-11-04T14:59:29.067Z,72.23
2022-11-04T15:02:33.942Z,72.45
2022-11-04T15:05:39.184Z,72.64
2022-11-04T15:08:42.151Z,72.79
2022-11-04T15:12:03.520Z,72.64
2022-11-04T15:15:28.159Z,72.75
2022-11-04T15:18:32.123Z,72.87
2022-11-04T15:21:43.552Z,73.42
2022-11-04T15:24:46.912Z,73.30
2022-11-04T15:27:50.012Z,73.22
2022-11-04T15:31:02.556Z,73.42
2022-11-04T15:34:14.082Z,73.47
2022-11-04T15:37:17.826Z,73.56
2022-11-04T15:40:22.180Z,73.48
2022-11-04T15:43:25.235Z,73.74
2022-11-04T15:46:29.586Z,73.57
2022-11-04T15:49:35.455Z,73.62
2022-11-04T15:52:38.414Z,73.45
2022-11-04T15:55:41.459Z,73.27
2022-11-04T15:58:45.519Z,73.10
2022-11-04T16:01:52.163Z,72.99
2022-11-04T16:05:06.974Z,72.95
2022-11-04T16:08:27.408Z,73.04
2022-11-04T16:11:30.569Z,72.94
2022-11-04T16:14:34.243Z,73.15
2022-11-04T16:17:44.990Z,73.32
2022-11-04T16:20:49.152Z,73.30
2022-11-04T16:23:56.937Z,73.33
2022-11-04T16:27:00.733Z,73.48
2022-11-04T16:30:21.667Z,73.69
2022-11-04T16:33:24.696Z,73.64
2022-11-04T16:36:34.087Z,73.44
2022-11-04T16:39:39.239Z,73.38
2022-11-04T16:42:44.184Z,73.46
2022-11-04T16:45:53.587Z,73.58
2022-11-04T16:48:56.908Z,73.60
2022-11-04T16:52:03.444Z,73.64
2022-11-04T16:55:07.060Z,73.74
2022-11-04T16:58:17.516Z,73.88
2022-11-04T17:01:21.411Z,74.13
2022-11-04T17:04:24.471Z,74.21
2022-11-04T17:07:51.171Z,74.09
2022-11-04T17:10:50.717Z,74.00
2022-11-04T17:13:53.643Z,73.99
2022-11-04T17:16:59.412Z,74.16
2022-11-04T17:20:02.285Z,74.15
2022-11-04T17:23:05.410Z,74.16
2022-11-04T17:26:09.642Z,74.82
2022-11-04T17:29:17.049Z,74.77
2022-11-04T17:32:20.485Z,74.63
2022-11-04T17:35:23.807Z,74.58
2022-11-04T17:38:27.509Z,74.56
2022-11-04T17:41:49.101Z,74.74
2022-11-04T17:44:52.572Z,74.76
2022-11-04T17:47:55.587Z,74.80
2022-11-04T17:50:58.614Z,74.90
2022-11-04T17:54:02.233Z,74.96
2022-11-04T17:57:05.199Z,75.00
2022-11-04T18:00:08.907Z,75.05
2022-11-04T18:03:12.471Z,75.09
2022-11-04T18:06:15.671Z,75.18
2022-11-04T18:09:18.818Z,75.30
2022-11-04T18:12:37.120Z,75.41
2022-11-04T18:15:40.126Z,75.47
2022-11-04T18:18:43.045Z,75.50
2022-11-04T18:21:47.336Z,75.57
2022-11-04T18:24:50.392Z,75.50
2022-11-04T18:27:53.352Z,75.43
2022-11-04T18:30:56.317Z,75.37
2022-11-04T18:34:01.779Z,75.47
2022-11-04T18:37:04.723Z,75.51
2022-11-04T18:40:08.142Z,75.70
2022-11-04T18:43:11.279Z,75.99
2022-11-04T18:46:16.102Z,76.22
2022-11-04T18:49:20.628Z,76.43
2022-11-04T18:52:24.038Z,76.50
2022-11-04T18:55:27.025Z,76.49
2022-11-04T18:58:34.999Z,76.61
2022-11-04T19:01:38.854Z,76.62
2022-11-04T19:04:41.998Z,76.53
2022-11-04T19:07:45.042Z,76.60
2022-11-04T19:11:00.482Z,76.70
2022-11-04T19:14:09.552Z,76.79
2022-11-04T19:17:12.706Z,76.83
2022-11-04T19:20:16.320Z,77.00
2022-11-04T19:23:19.277Z,77.16
2022-11-04T19:26:24.041Z,77.27
2022-11-04T19:29:27.051Z,77.45
2022-11-04T19:32:30.012Z,77.88
2022-11-04T19:35:33.055Z,78.14
2022-11-04T19:38:36.429Z,78.32
2022-11-04T19:41:58.094Z,78.65
2022-11-04T19:45:01.533Z,78.86
2022-11-04T19:48:04.962Z,78.94
2022-11-04T19:51:11.963Z,79.06
2022-11-04T19:54:14.885Z,79.15
2022-11-04T19:57:17.803Z,79.33
2022-11-04T20:00:20.857Z,79.41
2022-11-04T20:03:24.005Z,79.50
2022-11-04T20:06:26.931Z,79.67
2022-11-04T20:09:29.873Z,79.89
2022-11-04T20:12:54.133Z,79.97
2022-11-04T20:15:57.364Z,81.44
2022-11-04T20:19:04.215Z,81.64
2022-11-04T20:22:07.134Z,81.14
2022-11-04T20:25:10.232Z,81.11
2022-11-04T20:28:13.448Z,81.02
2022-11-04T20:31:19.189Z,80.99
2022-11-04T20:34:22.277Z,81.01
2022-11-04T20:37:26.143Z,81.02
2022-11-04T20:40:30.084Z,81.10
2022-11-04T20:43:38.939Z,81.16
2022-11-04T20:46:42.871Z,81.21
2022-11-04T20:49:45.980Z,81.33
2022-11-04T20:52:48.898Z,81.39
2022-11-04T20:55:51.985Z,81.43
2022-11-04T20:58:59.408Z,81.40
2022-11-04T21:02:02.924Z,81.54
2022-11-04T21:05:06.356Z,81.64
2022-11-04T21:08:09.814Z,81.85
2022-11-04T21:11:13.334Z,82.01
2022-11-04T21:14:19.470Z,82.17
2022-11-04T21:17:22.673Z,82.27
2022-11-04T21:20:25.596Z,82.37
2022-11-04T21:23:28.988Z,82.45
2022-11-04T21:26:34.305Z,82.53
2022-11-04T21:29:37.245Z,82.61
2022-11-04T21:32:40.217Z,82.70
2022-11-04T21:35:43.769Z,82.74
2022-11-04T21:38:47.019Z,82.79
2022-11-04T21:41:50.240Z,82.85
2022-11-04T21:44:53.185Z,82.94
2022-11-04T21:47:56.170Z,82.97
2022-11-04T21:51:07.132Z,82.95
2022-11-04T21:54:10.738Z,82.99
2022-11-04T21:57:13.712Z,83.00
2022-11-04T22:00:16.709Z,83.03
2022-11-04T22:03:19.629Z,83.03
2022-11-04T22:06:22.996Z,83.06
2022-11-04T22:09:25.882Z,83.08
2022-11-04T22:12:29.817Z,83.10
2022-11-04T22:15:51.973Z,83.10
2022-11-04T22:18:57.544Z,83.12
2022-11-04T22:22:00.448Z,83.10
2022-11-04T22:25:03.603Z,83.12
2022-11-04T22:28:06.598Z,83.11
2022-11-04T22:31:24.724Z,83.15
2022-11-04T22:34:27.840Z,83.17
2022-11-04T22:37:31.220Z,83.20
2022-11-04T22:40:34.786Z,83.21
2022-11-04T22:43:38.046Z,83.23
2022-11-04T22:46:41.185Z,83.29
2022-11-04T22:49:44.171Z,83.31
2022-11-04T22:52:47.605Z,83.37
2022-11-04T22:55:50.929Z,83.38
2022-11-04T22:58:54.370Z,83.30
2022-11-04T23:01:57.570Z,83.25
2022-11-04T23:05:01.047Z,83.19
2022-11-04T23:08:04.110Z,83.09
2022-11-04T23:11:35.014Z,82.88
2022-11-04T23:14:37.935Z,82.59
2022-11-04T23:17:59.510Z,82.26
2022-11-04T23:21:20.837Z,81.91
2022-11-04T23:24:42.281Z,81.59
2022-11-04T23:28:06.227Z,81.35
2022-11-04T23:31:09.139Z,81.22
2022-11-04T23:34:30.609Z,80.98
2022-11-04T23:37:33.579Z,80.56
2022-11-04T23:40:36.684Z,80.19
2022-11-04T23:43:39.622Z,79.85
2022-11-04T23:47:01.143Z,79.63
2022-11-04T23:50:22.997Z,79.27
2022-11-04T23:53:44.803Z,79.02
2022-11-04T23:57:06.559Z,78.62
